Time;durP1;ratioP1;P1;durP2;ratioP2;P2;SDS_P1;SDS_P2;PMS_P1;PMS_P2;Temp;Humidity;BMP_temperature;BMP_pressure;BME280_temperature;BME280_humidity;BME280_pressure;Samples;Min_cycle;Max_cycle;Signal;HPM_P1;HPM_P2
2023/09/14 00:01:49;;;;;;;2.58;1.13;;;11.70;99.90;;;;;;5019340;28;20048;-70
2023/09/14 00:04:14;;;;;;;4.22;1.27;;;11.80;99.90;;;;;;5019380;28;20043;-70
2023/09/14 00:06:41;;;;;;;3.58;1.38;;;11.70;99.90;;;;;;5019239;28;20037;-70
2023/09/14 00:09:07;;;;;;;3.78;1.30;;;11.70;99.90;;;;;;5019506;28;20045;-70
2023/09/14 00:11:33;;;;;;;5.78;1.50;;;11.70;99.90;;;;;;5019417;28;20072;-70
2023/09/14 00:13:58;;;;;;;6.72;1.50;;;11.70;99.90;;;;;;5019201;28;20570;-70
2023/09/14 00:16:24;;;;;;;4.25;1.70;;;11.70;99.90;;;;;;5019162;28;20045;-70
2023/09/14 00:18:49;;;;;;;4.90;1.50;;;11.70;99.90;;;;;;5019064;28;20053;-70
2023/09/14 00:21:15;;;;;;;4.35;1.85;;;11.60;99.90;;;;;;5018990;28;20037;-70
2023/09/14 00:23:40;;;;;;;4.05;1.45;;;11.60;99.90;;;;;;5002739;28;20041;-70
2023/09/14 00:26:06;;;;;;;3.35;1.88;;;11.60;99.90;;;;;;5018970;28;20041;-70
2023/09/14 00:28:32;;;;;;;4.40;1.58;;;11.50;99.90;;;;;;5018898;28;20045;-70
2023/09/14 00:30:57;;;;;;;6.97;1.75;;;11.50;99.90;;;;;;5002488;28;20048;-70
2023/09/14 00:33:23;;;;;;;5.95;1.92;;;11.50;99.90;;;;;;5018650;28;20041;-70
2023/09/14 00:35:49;;;;;;;4.15;1.35;;;11.50;99.90;;;;;;5018800;28;20044;-70
2023/09/14 00:38:16;;;;;;;5.03;1.98;;;11.50;99.90;;;;;;5019144;28;20136;-70
2023/09/14 00:40:41;;;;;;;6.93;1.60;;;11.40;99.90;;;;;;5018635;28;20148;-70
2023/09/14 00:43:07;;;;;;;6.60;1.80;;;11.40;99.90;;;;;;5018617;28;20050;-70
2023/09/14 00:45:33;;;;;;;4.85;1.90;;;11.40;99.90;;;;;;5018650;28;20041;-70
2023/09/14 00:48:02;;;;;;;3.97;2.08;;;11.40;99.90;;;;;;5018485;28;20055;-70
2023/09/14 00:50:29;;;;;;;6.90;1.90;;;11.40;99.90;;;;;;5018498;28;20565;-70
2023/09/14 00:53:06;;;;;;;5.35;1.50;;;11.40;99.90;;;;;;5018361;28;20033;-70
2023/09/14 00:55:32;;;;;;;5.45;1.80;;;11.50;99.90;;;;;;5018990;28;20095;-70
2023/09/14 00:57:58;;;;;;;6.15;1.92;;;11.40;99.90;;;;;;5018375;28;20433;-70
2023/09/14 01:00:25;;;;;;;6.22;1.88;;;11.40;99.90;;;;;;5018331;28;20508;-70
2023/09/14 01:02:52;;;;;;;4.20;1.75;;;11.40;99.90;;;;;;5018165;28;20053;-70
2023/09/14 01:05:18;;;;;;;6.20;2.28;;;11.40;99.90;;;;;;5018139;28;20461;-70
2023/09/14 01:07:44;;;;;;;4.53;1.90;;;11.40;99.90;;;;;;5018192;28;20037;-70
2023/09/14 01:10:10;;;;;;;5.53;1.92;;;11.40;99.90;;;;;;5017988;28;20037;-70
2023/09/14 01:12:37;;;;;;;6.50;2.20;;;11.40;99.90;;;;;;5018020;28;20092;-70
2023/09/14 01:15:26;;;;;;;4.75;2.20;;;11.40;99.90;;;;;;5018034;28;20046;-70
2023/09/14 01:18:14;;;;;;;5.18;2.17;;;11.40;99.90;;;;;;5018007;28;20038;-70
2023/09/14 01:20:53;;;;;;;5.65;2.00;;;11.40;99.90;;;;;;5018220;28;20060;-70
2023/09/14 01:23:30;;;;;;;7.63;2.53;;;11.40;99.90;;;;;;5017850;28;20465;-70
2023/09/14 01:25:56;;;;;;;4.93;2.20;;;11.40;99.90;;;;;;5018075;28;20046;-70
2023/09/14 01:28:22;;;;;;;4.85;1.88;;;11.40;99.90;;;;;;5017796;28;20081;-70
2023/09/14 01:30:47;;;;;;;4.53;2.10;;;11.40;99.90;;;;;;5017815;28;20080;-70
2023/09/14 01:33:14;;;;;;;5.00;2.10;;;11.30;99.90;;;;;;5001789;28;20144;-70
2023/09/14 01:35:56;;;;;;;4.72;2.15;;;11.30;99.90;;;;;;5017914;28;20406;-70
2023/09/14 01:38:22;;;;;;;4.80;2.03;;;11.30;99.90;;;;;;5017807;28;20048;-70
2023/09/14 01:40:49;;;;;;;8.88;2.13;;;11.30;99.90;;;;;;5001284;28;20045;-70
2023/09/14 01:43:16;;;;;;;4.85;1.88;;;11.30;99.90;;;;;;5017616;28;20045;-70
2023/09/14 01:45:42;;;;;;;5.95;2.30;;;11.20;99.90;;;;;;5017509;28;20037;-70
2023/09/14 01:48:13;;;;;;;2.88;1.25;;;11.20;99.90;;;;;;5017524;28;20080;-70
2023/09/14 01:50:39;;;;;;;2.92;1.10;;;11.20;99.90;;;;;;5017401;28;20042;-70
2023/09/14 01:53:04;;;;;;;2.17;0.82;;;11.10;99.90;;;;;;5017294;28;20053;-70
2023/09/14 01:55:30;;;;;;;0.52;0.50;;;11.10;99.90;;;;;;5017300;28;20043;-70
2023/09/14 01:57:55;;;;;;;3.15;0.43;;;11.00;99.90;;;;;;5017285;28;20068;-70
2023/09/14 02:00:21;;;;;;;2.20;0.90;;;11.00;99.90;;;;;;5017210;28;20042;-70
2023/09/14 02:02:47;;;;;;;3.85;1.42;;;11.00;99.90;;;;;;5017063;28;20176;-70
2023/09/14 02:05:12;;;;;;;2.40;1.00;;;10.90;99.90;;;;;;5017164;28;20123;-70
2023/09/14 02:07:38;;;;;;;2.97;1.05;;;10.90;99.90;;;;;;5017002;28;20041;-70
2023/09/14 02:10:04;;;;;;;3.08;1.05;;;10.90;99.90;;;;;;5017078;28;20041;-70
2023/09/14 02:12:29;;;;;;;2.55;1.00;;;10.80;99.90;;;;;;5016870;28;20042;-70
2023/09/14 02:14:55;;;;;;;1.95;1.15;;;10.80;99.90;;;;;;5017218;28;20044;-70
2023/09/14 02:17:21;;;;;;;3.35;1.20;;;10.80;99.90;;;;;;5016863;28;20405;-70
2023/09/14 02:19:46;;;;;;;2.17;1.13;;;10.80;99.90;;;;;;5016839;28;20063;-70
2023/09/14 02:22:12;;;;;;;3.33;1.30;;;10.70;99.90;;;;;;5016401;28;20099;-70
2023/09/14 02:24:37;;;;;;;1.92;1.15;;;10.70;99.90;;;;;;5000435;28;20052;-70
2023/09/14 02:27:03;;;;;;;2.35;1.17;;;10.70;99.90;;;;;;5016569;28;20045;-70
2023/09/14 02:29:30;;;;;;;3.05;1.20;;;10.60;99.90;;;;;;5016647;28;20033;-70
2023/09/14 02:31:56;;;;;;;3.20;1.20;;;10.60;99.90;;;;;;5016510;28;20045;-70
2023/09/14 02:34:22;;;;;;;2.92;1.20;;;10.60;99.90;;;;;;5016774;28;20509;-70
2023/09/14 02:36:48;;;;;;;1.98;1.17;;;10.60;99.90;;;;;;5016528;28;20076;-70
2023/09/14 02:39:13;;;;;;;3.60;1.67;;;10.70;99.90;;;;;;5016467;28;20087;-70
2023/09/14 02:41:39;;;;;;;4.32;1.50;;;10.70;99.90;;;;;;5016673;28;20049;-70
2023/09/14 02:44:04;;;;;;;3.58;1.85;;;10.70;99.90;;;;;;5016409;28;20502;-70
2023/09/14 02:46:30;;;;;;;2.85;1.60;;;10.70;99.90;;;;;;5016652;28;20187;-70
2023/09/14 02:48:56;;;;;;;4.68;1.67;;;10.60;99.90;;;;;;5016263;28;20522;-70
2023/09/14 02:51:21;;;;;;;4.45;1.75;;;10.60;99.90;;;;;;5016278;28;20037;-70
2023/09/14 02:53:47;;;;;;;3.63;1.20;;;10.60;99.90;;;;;;5016497;28;20045;-70
2023/09/14 02:56:12;;;;;;;2.72;1.02;;;10.60;99.90;;;;;;5016144;28;20037;-70
2023/09/14 02:58:38;;;;;;;6.80;1.70;;;10.50;99.90;;;;;;5016386;28;20048;-70
2023/09/14 03:01:11;;;;;;;4.22;0.95;;;10.50;99.90;;;;;;5016033;28;20056;-70
2023/09/14 03:03:37;;;;;;;1.98;1.00;;;10.50;99.90;;;;;;5016014;28;20498;-70
2023/09/14 03:06:03;;;;;;;3.33;1.20;;;10.50;99.90;;;;;;5016013;28;20046;-70
2023/09/14 03:08:30;;;;;;;1.85;0.60;;;10.40;99.90;;;;;;5015917;28;20045;-70
2023/09/14 03:10:56;;;;;;;2.00;0.90;;;10.40;99.90;;;;;;5015948;28;20387;-70
2023/09/14 03:13:22;;;;;;;4.82;1.48;;;10.40;99.90;;;;;;5015831;28;20041;-70
2023/09/14 03:15:55;;;;;;;1.92;1.27;;;10.30;99.90;;;;;;5016129;28;20121;-70
2023/09/14 03:18:21;;;;;;;3.83;1.30;;;10.30;99.90;;;;;;4999320;28;20465;-70
2023/09/14 03:20:50;;;;;;;2.03;1.05;;;10.30;99.90;;;;;;5015743;28;20041;-70
2023/09/14 03:23:15;;;;;;;1.98;0.80;;;10.30;99.90;;;;;;5015907;28;20102;-70
2023/09/14 03:25:41;;;;;;;1.88;0.80;;;10.30;99.90;;;;;;5015693;28;20553;-70
2023/09/14 03:28:06;;;;;;;2.50;1.23;;;10.20;99.90;;;;;;5015615;28;20050;-70
2023/09/14 03:30:34;;;;;;;4.65;1.42;;;10.20;99.90;;;;;;5015618;28;20036;-70
2023/09/14 03:33:00;;;;;;;4.13;1.50;;;10.20;99.90;;;;;;5015492;28;20041;-70
2023/09/14 03:35:26;;;;;;;2.88;1.45;;;10.20;99.90;;;;;;5015145;28;20043;-70
2023/09/14 03:37:51;;;;;;;2.75;1.30;;;10.20;99.90;;;;;;5015585;28;20437;-71
2023/09/14 03:40:17;;;;;;;3.75;1.48;;;10.20;99.90;;;;;;5015518;28;20037;-70
2023/09/14 03:42:42;;;;;;;6.78;1.30;;;10.20;99.90;;;;;;5015461;28;20043;-70
2023/09/14 03:45:08;;;;;;;1.42;0.98;;;10.20;99.90;;;;;;4999146;28;20045;-70
2023/09/14 03:47:34;;;;;;;2.88;0.95;;;10.10;99.90;;;;;;5015577;28;20064;-70
2023/09/14 03:50:00;;;;;;;1.90;0.70;;;10.10;99.90;;;;;;5015434;28;20409;-70
2023/09/14 03:52:25;;;;;;;1.55;0.82;;;10.00;99.90;;;;;;5015293;28;20095;-70
2023/09/14 03:54:51;;;;;;;3.58;0.80;;;10.00;99.90;;;;;;4999082;28;20073;-70
2023/09/14 03:57:17;;;;;;;2.35;0.80;;;10.00;99.90;;;;;;5015343;28;20060;-70
2023/09/14 03:59:43;;;;;;;1.38;0.90;;;10.00;99.90;;;;;;5015277;28;20111;-70
2023/09/14 04:02:10;;;;;;;1.60;0.80;;;10.00;99.90;;;;;;4998858;28;20541;-70
2023/09/14 04:04:35;;;;;;;3.45;0.75;;;10.00;99.90;;;;;;5015285;28;20151;-70
2023/09/14 04:07:01;;;;;;;6.22;1.30;;;10.00;99.90;;;;;;5015142;28;20124;-71
2023/09/14 04:09:29;;;;;;;2.28;1.48;;;10.00;99.90;;;;;;5015498;28;20084;-70
2023/09/14 04:11:56;;;;;;;3.55;1.52;;;10.00;99.90;;;;;;5015365;28;20037;-70
2023/09/14 04:14:22;;;;;;;3.95;1.30;;;10.00;99.90;;;;;;5015169;28;20112;-70
2023/09/14 04:16:47;;;;;;;3.95;1.10;;;10.00;99.90;;;;;;5015156;28;20131;-70
2023/09/14 04:19:14;;;;;;;4.38;1.20;;;10.00;99.90;;;;;;5015116;28;20037;-70
2023/09/14 04:21:43;;;;;;;2.78;1.10;;;10.00;99.90;;;;;;5015333;28;20055;-70
2023/09/14 04:24:09;;;;;;;5.20;1.08;;;10.00;99.90;;;;;;5015110;28;20033;-70
2023/09/14 04:26:35;;;;;;;1.52;0.60;;;10.00;99.90;;;;;;5015085;28;20494;-70
2023/09/14 04:29:00;;;;;;;3.25;1.10;;;9.90;99.90;;;;;;5015033;28;20045;-70
2023/09/14 04:31:26;;;;;;;2.50;0.85;;;9.90;99.90;;;;;;5014870;28;20099;-70
2023/09/14 04:33:52;;;;;;;2.20;0.68;;;9.90;99.90;;;;;;5015276;28;20045;-70
2023/09/14 04:36:17;;;;;;;3.58;1.20;;;9.80;99.90;;;;;;5015033;28;20494;-70
2023/09/14 04:38:43;;;;;;;2.45;0.60;;;9.80;99.90;;;;;;5014994;28;20040;-70
2023/09/14 04:41:09;;;;;;;4.15;1.25;;;9.80;99.90;;;;;;5015093;28;20081;-70
2023/09/14 04:43:35;;;;;;;2.55;1.30;;;9.70;99.90;;;;;;4998593;28;20049;-70
2023/09/14 04:46:03;;;;;;;4.20;1.48;;;9.70;99.90;;;;;;5017135;28;20041;-70
2023/09/14 04:48:29;;;;;;;2.03;1.00;;;9.70;99.90;;;;;;5018469;28;20072;-70
2023/09/14 04:50:58;;;;;;;3.28;1.42;;;9.70;99.90;;;;;;5018550;28;20069;-70
2023/09/14 04:53:25;;;;;;;5.38;1.38;;;9.70;99.90;;;;;;5018425;28;20046;-70
2023/09/14 04:55:50;;;;;;;3.25;1.40;;;9.70;99.90;;;;;;5018429;28;20139;-70
2023/09/14 04:58:16;;;;;;;6.35;1.75;;;9.70;99.90;;;;;;5018404;28;20187;-70
2023/09/14 05:00:42;;;;;;;3.83;1.33;;;9.70;99.90;;;;;;5018311;28;20050;-70
2023/09/14 05:03:07;;;;;;;5.45;1.70;;;9.70;99.90;;;;;;5018518;28;20052;-70
2023/09/14 05:05:33;;;;;;;4.15;1.73;;;9.80;99.90;;;;;;5018253;28;20048;-70
2023/09/14 05:07:59;;;;;;;5.25;1.65;;;9.80;99.90;;;;;;5018261;28;20063;-70
2023/09/14 05:10:26;;;;;;;4.88;2.15;;;9.80;99.90;;;;;;5018147;28;20045;-70
2023/09/14 05:12:52;;;;;;;5.45;2.17;;;9.80;99.90;;;;;;5018041;28;20533;-70
2023/09/14 05:15:18;;;;;;;4.82;2.15;;;9.90;99.90;;;;;;5018076;28;20092;-70
2023/09/14 05:17:46;;;;;;;5.90;2.17;;;9.90;99.90;;;;;;5017974;28;20033;-70
2023/09/14 05:20:14;;;;;;;6.05;2.17;;;9.90;99.90;;;;;;5018000;28;20103;-70
2023/09/14 05:22:40;;;;;;;6.65;2.00;;;9.80;99.90;;;;;;5018118;28;20213;-70
2023/09/14 05:25:07;;;;;;;5.60;2.20;;;9.80;99.90;;;;;;5018147;28;20405;-70
2023/09/14 05:27:38;;;;;;;7.20;2.22;;;9.80;99.90;;;;;;5017693;28;20048;-70
2023/09/14 05:30:08;;;;;;;4.90;2.25;;;9.80;99.90;;;;;;5017829;28;20124;-70
2023/09/14 05:32:35;;;;;;;6.05;2.40;;;9.90;99.90;;;;;;5001423;28;20033;-70
2023/09/14 05:35:02;;;;;;;5.45;2.17;;;9.90;99.90;;;;;;5017707;28;20099;-70
2023/09/14 05:37:27;;;;;;;6.10;1.90;;;9.90;99.90;;;;;;5017641;28;20056;-70
2023/09/14 05:39:53;;;;;;;6.57;2.20;;;9.90;99.90;;;;;;5017858;28;20034;-70
2023/09/14 05:42:19;;;;;;;4.38;2.05;;;9.90;99.90;;;;;;5017518;28;20049;-70
2023/09/14 05:44:45;;;;;;;4.93;2.05;;;9.90;99.90;;;;;;5017524;28;20042;-70
2023/09/14 05:47:11;;;;;;;3.20;1.88;;;10.00;99.90;;;;;;5017442;28;20053;-70
2023/09/14 05:49:37;;;;;;;3.42;1.55;;;10.00;99.90;;;;;;5017742;28;20120;-70
2023/09/14 05:52:02;;;;;;;6.32;1.88;;;10.00;99.90;;;;;;5017335;28;20494;-70
2023/09/14 05:54:28;;;;;;;7.88;2.38;;;10.00;99.90;;;;;;5017240;28;20037;-70
2023/09/14 05:56:54;;;;;;;4.65;2.03;;;10.10;99.90;;;;;;5016311;28;20042;-70
2023/09/14 05:59:21;;;;;;;7.28;2.38;;;10.10;99.90;;;;;;5017465;28;20029;-70
2023/09/14 06:01:46;;;;;;;5.28;2.35;;;10.10;99.90;;;;;;5017161;28;20033;-70
2023/09/14 06:04:12;;;;;;;5.55;2.15;;;10.10;99.90;;;;;;5017157;28;20124;-70
2023/09/14 06:06:38;;;;;;;4.45;1.80;;;10.10;99.90;;;;;;5017162;28;20091;-70
2023/09/14 06:09:04;;;;;;;7.63;2.10;;;10.10;99.90;;;;;;5016971;28;20034;-70
2023/09/14 06:11:29;;;;;;;4.63;1.90;;;10.10;99.90;;;;;;5016914;28;20405;-70
2023/09/14 06:13:55;;;;;;;3.55;1.50;;;10.10;99.90;;;;;;5017285;28;20050;-70
2023/09/14 06:16:20;;;;;;;8.32;2.45;;;10.20;99.90;;;;;;5016906;28;20068;-70
2023/09/14 06:18:46;;;;;;;7.53;1.92;;;10.20;99.90;;;;;;5016861;28;20124;-70
2023/09/14 06:21:12;;;;;;;7.57;2.30;;;10.30;99.90;;;;;;5017018;28;20099;-70
2023/09/14 06:23:40;;;;;;;7.38;2.03;;;10.30;99.90;;;;;;5017041;28;20099;-70
2023/09/14 06:26:05;;;;;;;7.82;2.63;;;10.40;99.90;;;;;;5016724;28;20045;-70
2023/09/14 06:28:31;;;;;;;5.45;2.45;;;10.50;99.90;;;;;;5016692;28;20033;-70
2023/09/14 06:30:58;;;;;;;9.43;2.58;;;10.50;99.90;;;;;;5016634;28;20037;-71
2023/09/14 06:33:23;;;;;;;7.47;2.05;;;10.60;99.90;;;;;;5016378;28;20037;-70
2023/09/14 06:35:49;;;;;;;8.15;2.33;;;10.70;99.90;;;;;;5016735;28;20037;-70
2023/09/14 06:38:15;;;;;;;7.78;2.45;;;10.70;99.90;;;;;;5016747;28;20524;-70
2023/09/14 06:40:40;;;;;;;8.88;1.92;;;10.80;99.90;;;;;;5016456;28;20046;-69
2023/09/14 06:43:06;;;;;;;7.57;2.50;;;10.90;99.90;;;;;;5016404;28;20183;-69
2023/09/14 06:45:33;;;;;;;6.30;2.10;;;11.00;99.90;;;;;;5016402;28;20037;-69
2023/09/14 06:47:59;;;;;;;8.35;2.85;;;11.00;99.90;;;;;;5016347;28;20056;-69
2023/09/14 06:50:24;;;;;;;4.57;2.10;;;11.10;99.90;;;;;;5016569;28;20050;-69
2023/09/14 06:52:50;;;;;;;8.38;2.25;;;11.20;99.90;;;;;;5000138;28;20494;-69
2023/09/14 06:55:15;;;;;;;5.47;2.38;;;11.20;99.90;;;;;;5016243;28;20041;-69
2023/09/14 06:57:41;;;;;;;6.18;2.50;;;11.30;99.90;;;;;;5016171;28;20034;-69
2023/09/14 07:00:13;;;;;;;9.82;2.15;;;11.40;99.90;;;;;;5016356;28;20099;-69
2023/09/14 07:02:40;;;;;;;6.30;2.58;;;11.40;99.90;;;;;;5016360;28;20049;-70
2023/09/14 07:05:06;;;;;;;5.95;2.40;;;11.50;99.90;;;;;;5016042;28;20520;-70
2023/09/14 07:07:31;;;;;;;7.00;2.70;;;11.60;99.90;;;;;;4999514;28;20132;-70
2023/09/14 07:09:57;;;;;;;9.18;2.45;;;11.70;99.90;;;;;;5015793;28;20038;-70
2023/09/14 07:12:22;;;;;;;11.38;2.25;;;11.80;99.90;;;;;;5015953;28;20033;-69
2023/09/14 07:14:48;;;;;;;11.18;3.00;;;11.90;99.90;;;;;;5015957;28;20080;-70
2023/09/14 07:17:14;;;;;;;5.72;2.55;;;12.00;99.90;;;;;;5015978;28;20073;-70
2023/09/14 07:19:39;;;;;;;5.55;2.25;;;12.10;99.90;;;;;;5015908;28;20148;-70
2023/09/14 07:22:05;;;;;;;7.38;2.28;;;12.20;99.90;;;;;;5015993;28;20107;-70
2023/09/14 07:24:32;;;;;;;8.70;2.20;;;12.30;99.90;;;;;;5015747;28;20124;-70
2023/09/14 07:26:59;;;;;;;6.15;2.70;;;12.30;99.90;;;;;;5015636;28;20052;-70
2023/09/14 07:29:24;;;;;;;7.60;1.98;;;12.50;99.90;;;;;;4999393;28;20076;-70
2023/09/14 07:31:51;;;;;;;6.97;2.15;;;12.60;99.90;;;;;;5015766;28;20088;-70
2023/09/14 07:34:16;;;;;;;7.40;2.00;;;12.70;99.90;;;;;;5015845;28;20405;-70
2023/09/14 07:36:42;;;;;;;10.43;2.92;;;12.80;99.90;;;;;;5015891;28;20041;-70
2023/09/14 07:39:08;;;;;;;9.57;1.98;;;12.90;99.90;;;;;;5015688;28;20484;-70
2023/09/14 07:41:33;;;;;;;13.60;2.40;;;13.10;99.90;;;;;;5015486;28;20475;-69
2023/09/14 07:43:59;;;;;;;8.20;2.25;;;13.20;99.90;;;;;;5015522;28;20054;-70
2023/09/14 07:46:24;;;;;;;7.30;2.22;;;13.30;99.90;;;;;;5015435;28;20060;-70
2023/09/14 07:48:50;;;;;;;9.45;3.10;;;13.50;99.90;;;;;;5015398;28;20128;-70
2023/09/14 07:51:16;;;;;;;7.82;2.20;;;13.60;99.90;;;;;;5015344;28;20052;-70
2023/09/14 07:53:41;;;;;;;7.78;2.25;;;13.70;99.90;;;;;;5015428;28;20069;-70
2023/09/14 07:56:07;;;;;;;13.57;2.53;;;13.90;99.90;;;;;;5015341;28;20087;-70
2023/09/14 07:58:33;;;;;;;7.50;2.83;;;14.00;99.90;;;;;;5015352;28;20052;-70
2023/09/14 08:00:58;;;;;;;11.52;2.50;;;14.20;99.90;;;;;;5015363;28;20060;-70
2023/09/14 08:03:25;;;;;;;5.95;2.22;;;14.30;99.90;;;;;;4998897;28;20045;-70
2023/09/14 08:05:52;;;;;;;8.70;2.28;;;14.50;99.90;;;;;;5015296;28;20057;-70
2023/09/14 08:08:17;;;;;;;7.28;2.13;;;14.70;99.90;;;;;;5015141;28;20080;-70
2023/09/14 08:10:51;;;;;;;10.52;2.65;;;14.90;99.90;;;;;;5015516;28;20073;-70
2023/09/14 08:13:17;;;;;;;6.13;2.20;;;15.10;99.90;;;;;;5015426;28;20040;-70
2023/09/14 08:15:42;;;;;;;7.43;2.40;;;15.30;99.90;;;;;;5015178;28;20405;-70
2023/09/14 08:18:08;;;;;;;7.88;2.03;;;15.40;99.90;;;;;;5015153;28;20120;-70
2023/09/14 08:20:43;;;;;;;10.73;2.33;;;15.70;99.90;;;;;;5016921;28;20064;-71
2023/09/14 08:23:10;;;;;;;7.95;2.05;;;15.90;99.90;;;;;;5019030;28;20453;-71
2023/09/14 08:25:46;;;;;;;12.63;1.95;;;16.10;99.90;;;;;;5019448;28;20077;-70
2023/09/14 08:28:17;;;;;;;9.82;2.22;;;16.30;99.90;;;;;;5018929;28;20049;-75
2023/09/14 08:30:44;;;;;;;9.35;1.90;;;16.70;99.90;;;;;;5018887;28;20037;-76
2023/09/14 08:33:13;;;;;;;10.35;2.28;;;17.00;99.90;;;;;;5018665;28;20045;-74
2023/09/14 08:35:39;;;;;;;9.02;2.47;;;17.20;99.90;;;;;;5018808;28;20038;-76
2023/09/14 08:38:06;;;;;;;8.35;1.80;;;17.50;99.90;;;;;;5002372;28;20038;-76
2023/09/14 08:40:33;;;;;;;8.50;2.15;;;17.60;99.90;;;;;;5018688;28;20045;-76
2023/09/14 08:43:02;;;;;;;8.90;1.80;;;18.00;99.90;;;;;;5018613;28;20050;-76
2023/09/14 08:45:32;;;;;;;16.17;3.05;;;18.20;99.90;;;;;;5002578;28;20410;-75
2023/09/14 08:47:59;;;;;;;7.78;1.90;;;18.50;99.90;;;;;;5002264;28;20095;-76
2023/09/14 08:50:33;;;;;;;13.57;2.40;;;18.70;99.90;;;;;;5002146;28;20076;-76
2023/09/14 08:52:59;;;;;;;9.10;1.98;;;19.00;98.90;;;;;;5018707;28;20037;-76
2023/09/14 08:55:29;;;;;;;10.68;2.05;;;19.30;97.70;;;;;;5018751;28;20037;-76
2023/09/14 08:57:56;;;;;;;8.48;1.95;;;19.50;95.90;;;;;;5018431;28;20082;-76
2023/09/14 09:00:26;;;;;;;8.77;1.80;;;19.80;95.10;;;;;;5002070;28;20045;-76
2023/09/14 09:02:53;;;;;;;7.28;1.60;;;20.00;94.30;;;;;;5018251;28;20132;-76
2023/09/14 09:05:19;;;;;;;8.02;1.92;;;20.10;93.60;;;;;;5001885;28;20033;-77
2023/09/14 09:07:50;;;;;;;7.38;1.50;;;20.30;93.20;;;;;;5018113;28;20037;-77
2023/09/14 09:10:24;;;;;;;12.27;2.67;;;20.50;92.10;;;;;;5018456;28;20120;-76
2023/09/14 09:12:51;;;;;;;12.93;2.15;;;20.60;90.30;;;;;;5018349;28;20124;-76
2023/09/14 09:15:17;;;;;;;6.85;1.90;;;20.90;90.50;;;;;;5001827;28;20045;-76
2023/09/14 09:17:44;;;;;;;7.90;1.95;;;21.10;90.00;;;;;;5018108;28;20034;-76
2023/09/14 09:20:22;;;;;;;8.48;2.45;;;21.30;87.70;;;;;;5018032;28;20409;-76
2023/09/14 09:22:50;;;;;;;8.27;2.67;;;21.40;84.50;;;;;;5018564;28;20045;-76
2023/09/14 09:25:17;;;;;;;6.63;2.38;;;21.60;84.90;;;;;;5017908;28;20048;-75
2023/09/14 09:27:44;;;;;;;7.72;2.42;;;21.70;83.90;;;;;;5017776;28;20041;-74
2023/09/14 09:30:10;;;;;;;8.07;2.13;;;21.70;83.10;;;;;;5001414;28;20120;-74
2023/09/14 09:32:41;;;;;;;8.30;2.53;;;21.80;82.90;;;;;;5016270;28;20029;-75
2023/09/14 09:35:22;;;;;;;10.50;2.35;;;22.00;81.50;;;;;;5017744;28;20048;-74
2023/09/14 09:37:49;;;;;;;6.82;2.42;;;22.10;79.40;;;;;;5017735;28;20048;-71
2023/09/14 09:40:39;;;;;;;7.40;2.17;;;22.10;80.70;;;;;;5017927;28;20132;-71
2023/09/14 09:43:07;;;;;;;9.35;2.22;;;22.30;78.90;;;;;;5017640;28;20037;-72
2023/09/14 09:45:33;;;;;;;9.13;2.30;;;22.40;79.80;;;;;;5017880;28;20057;-76
2023/09/14 09:48:01;;;;;;;7.57;2.05;;;22.50;78.00;;;;;;5017398;28;20524;-77
2023/09/14 09:50:28;;;;;;;6.57;2.00;;;22.70;78.30;;;;;;5001228;28;20044;-77
2023/09/14 09:52:53;;;;;;;7.32;2.05;;;22.80;77.30;;;;;;5017328;28;20041;-77
2023/09/14 09:55:30;;;;;;;7.10;1.65;;;22.90;74.80;;;;;;5017342;28;20125;-77
2023/09/14 09:57:58;;;;;;;8.18;2.28;;;23.20;73.00;;;;;;5000993;28;20095;-76
2023/09/14 10:00:29;;;;;;;8.98;2.25;;;23.30;73.00;;;;;;5017514;28;20030;-76
2023/09/14 10:02:55;;;;;;;9.30;1.98;;;23.30;72.60;;;;;;5017116;28;20044;-77
2023/09/14 10:05:31;;;;;;;6.78;1.70;;;23.30;72.90;;;;;;5000873;28;20045;-76
2023/09/14 10:08:02;;;;;;;8.95;2.17;;;23.30;71.00;;;;;;5000961;28;20042;-77
2023/09/14 10:10:29;;;;;;;9.48;1.90;;;23.30;70.20;;;;;;5017541;28;20073;-76
2023/09/14 10:12:56;;;;;;;7.97;1.98;;;23.40;69.80;;;;;;5017169;28;20490;-75
2023/09/14 10:15:25;;;;;;;10.38;2.00;;;23.70;69.70;;;;;;5017250;28;20041;-76
2023/09/14 10:17:53;;;;;;;8.07;1.70;;;24.00;68.60;;;;;;5000840;28;20084;-76
2023/09/14 10:20:20;;;;;;;4.97;1.67;;;24.10;67.90;;;;;;5000879;28;20045;-76
2023/09/14 10:22:47;;;;;;;7.43;2.13;;;24.20;66.30;;;;;;5016924;28;20111;-75
2023/09/14 10:25:14;;;;;;;6.70;2.28;;;24.40;65.60;;;;;;5000477;28;20046;-72
2023/09/14 10:27:39;;;;;;;9.20;1.95;;;24.60;66.70;;;;;;5016914;28;20120;-72
2023/09/14 10:30:08;;;;;;;9.10;2.05;;;24.60;64.50;;;;;;5016935;28;20530;-72
2023/09/14 10:32:38;;;;;;;6.25;1.77;;;24.60;65.60;;;;;;5016415;28;20498;-72
2023/09/14 10:35:04;;;;;;;8.40;1.90;;;24.70;64.70;;;;;;5016875;28;20037;-72
2023/09/14 10:37:31;;;;;;;7.13;2.10;;;24.70;64.60;;;;;;5016577;28;20051;-72
2023/09/14 10:39:58;;;;;;;7.30;1.88;;;24.90;64.30;;;;;;5000366;28;20041;-72
2023/09/14 10:42:24;;;;;;;5.68;1.90;;;24.70;63.90;;;;;;5016341;28;20055;-72
2023/09/14 10:44:50;;;;;;;8.10;2.28;;;24.70;64.30;;;;;;5016082;28;20124;-72
2023/09/14 10:47:20;;;;;;;7.53;1.60;;;24.40;64.00;;;;;;5016318;28;20124;-72
2023/09/14 10:49:48;;;;;;;8.65;1.83;;;24.00;63.20;;;;;;5016583;28;20490;-72
2023/09/14 10:52:28;;;;;;;6.05;1.95;;;23.60;65.80;;;;;;4999783;28;20486;-72
2023/09/14 10:54:54;;;;;;;6.70;1.92;;;23.30;66.10;;;;;;5016312;28;20412;-72
2023/09/14 10:57:27;;;;;;;7.47;2.25;;;23.40;66.60;;;;;;5016396;28;20068;-72
2023/09/14 10:59:58;;;;;;;7.95;2.03;;;23.40;65.60;;;;;;5016116;28;20048;-72
2023/09/14 11:02:39;;;;;;;10.05;2.00;;;23.40;65.80;;;;;;4999762;28;20086;-72
2023/09/14 11:05:11;;;;;;;5.90;1.88;;;23.30;66.00;;;;;;5016286;28;20099;-72
2023/09/14 11:07:47;;;;;;;7.25;2.13;;;23.00;65.60;;;;;;5015988;28;20132;-72
2023/09/14 11:10:17;;;;;;;5.32;1.80;;;22.70;65.20;;;;;;5016339;28;20516;-72
2023/09/14 11:12:44;;;;;;;8.15;2.50;;;22.30;65.80;;;;;;5015996;28;20048;-72
2023/09/14 11:15:14;;;;;;;5.60;2.03;;;22.10;67.60;;;;;;5016180;28;20483;-72
2023/09/14 11:17:48;;;;;;;7.50;2.13;;;21.90;68.20;;;;;;5016253;28;20073;-72
2023/09/14 11:20:19;;;;;;;8.82;2.00;;;21.80;68.50;;;;;;5016166;28;20124;-72
2023/09/14 11:22:46;;;;;;;9.30;2.00;;;21.90;68.80;;;;;;5015881;28;20042;-72
2023/09/14 11:25:26;;;;;;;7.88;2.15;;;22.30;68.30;;;;;;5016066;28;20069;-72
2023/09/14 11:27:52;;;;;;;10.60;2.20;;;22.80;67.90;;;;;;5015919;28;20073;-72
2023/09/14 11:30:19;;;;;;;5.78;1.98;;;23.20;67.10;;;;;;4999406;28;20544;-72
2023/09/14 11:32:46;;;;;;;9.70;1.80;;;23.40;66.20;;;;;;5015650;28;20033;-72
2023/09/14 11:35:12;;;;;;;7.93;2.00;;;23.70;66.00;;;;;;4999313;28;20048;-72
2023/09/14 11:37:40;;;;;;;10.05;2.47;;;24.00;65.40;;;;;;5015572;28;20043;-72
2023/09/14 11:40:16;;;;;;;6.07;2.20;;;24.10;63.30;;;;;;5033245;28;20103;-72
2023/09/14 11:43:10;;;;;;;7.90;2.10;;;23.90;63.60;;;;;;5015453;28;20497;-72
2023/09/14 11:45:41;;;;;;;7.80;1.77;;;23.40;62.80;;;;;;5015543;28;20117;-72
2023/09/14 11:48:08;;;;;;;5.05;2.10;;;22.90;65.60;;;;;;5015505;28;20049;-72
2023/09/14 11:50:34;;;;;;;9.50;2.17;;;22.60;65.90;;;;;;5015645;28;20045;-72
2023/09/14 11:53:00;;;;;;;7.78;2.00;;;22.30;66.80;;;;;;5015607;28;20410;-72
2023/09/14 11:55:26;;;;;;;7.53;2.40;;;22.10;67.50;;;;;;5014552;28;20415;-72
2023/09/14 11:57:52;;;;;;;5.95;1.98;;;22.00;68.20;;;;;;5015410;28;20049;-72
2023/09/14 12:00:21;;;;;;;7.10;2.17;;;22.10;68.90;;;;;;5015546;28;20124;-72
2023/09/14 12:02:48;;;;;;;8.43;2.28;;;22.20;68.80;;;;;;5015286;28;20080;-72
2023/09/14 12:05:15;;;;;;;8.32;2.35;;;22.30;66.60;;;;;;5015557;28;20128;-72
2023/09/14 12:07:41;;;;;;;6.10;1.90;;;22.70;65.30;;;;;;5015414;28;20041;-72
2023/09/14 12:10:20;;;;;;;8.02;2.10;;;23.10;65.20;;;;;;5015197;28;20040;-72
2023/09/14 12:12:46;;;;;;;6.97;2.00;;;23.60;65.30;;;;;;5015132;28;20048;-72
2023/09/14 12:15:22;;;;;;;5.65;1.92;;;23.90;64.80;;;;;;5015160;28;20042;-72
2023/09/14 12:17:52;;;;;;;8.02;2.00;;;24.10;62.80;;;;;;5015422;28;20057;-72
2023/09/14 12:20:18;;;;;;;10.48;2.30;;;23.80;61.80;;;;;;5015179;28;20056;-72
2023/09/14 12:22:44;;;;;;;6.13;1.90;;;23.50;62.40;;;;;;5015066;28;20042;-72
2023/09/14 12:25:12;;;;;;;6.18;2.08;;;23.20;62.40;;;;;;5015409;28;20076;-72
2023/09/14 12:27:38;;;;;;;6.38;2.00;;;23.00;63.20;;;;;;5015065;28;20037;-72
2023/09/14 12:30:06;;;;;;;6.57;2.17;;;22.80;63.40;;;;;;5015001;28;20040;-72
2023/09/14 12:32:32;;;;;;;6.15;1.85;;;22.60;64.50;;;;;;5014863;28;20096;-72
2023/09/14 12:34:58;;;;;;;6.97;1.95;;;22.40;65.20;;;;;;5015317;28;20119;-72
2023/09/14 12:37:26;;;;;;;6.53;1.95;;;22.30;67.00;;;;;;5015032;28;20049;-72
2023/09/14 12:39:52;;;;;;;7.53;2.38;;;22.20;67.70;;;;;;5015282;28;20067;-72
2023/09/14 12:42:23;;;;;;;10.90;2.50;;;22.10;67.80;;;;;;5032848;28;20546;-72
2023/09/14 12:44:49;;;;;;;6.80;2.03;;;22.00;67.80;;;;;;5015251;28;20049;-72
2023/09/14 12:47:15;;;;;;;10.68;2.15;;;22.00;68.20;;;;;;5014851;28;20525;-72
2023/09/14 12:49:41;;;;;;;6.20;1.92;;;21.90;69.40;;;;;;5014875;28;20045;-72